createdAt,value
2019-05-05T00:02:48.884Z,6.93
2019-05-05T00:05:26.685Z,6.30
2019-05-05T00:07:57.254Z,7.25
2019-05-05T00:10:38.768Z,6.93
2019-05-05T00:13:25.201Z,6.12
2019-05-05T00:16:35.046Z,6.62
2019-05-05T00:19:06.680Z,6.07
2019-05-05T00:21:37.259Z,6.30
2019-05-05T00:24:08.204Z,6.40
2019-05-05T00:26:38.835Z,6.13
2019-05-05T00:29:09.539Z,6.57
2019-05-05T00:31:40.265Z,5.90
2019-05-05T00:34:11.109Z,6.65
2019-05-05T00:36:41.658Z,6.67
2019-05-05T00:39:14.793Z,6.27
2019-05-05T00:41:45.166Z,6.80
2019-05-05T00:44:15.748Z,6.47
2019-05-05T00:47:00.767Z,5.83
2019-05-05T00:49:45.618Z,6.43
2019-05-05T00:52:05.394Z,6.20
2019-05-05T00:54:36.061Z,6.10
2019-05-05T00:57:06.957Z,7.00
2019-05-05T00:59:37.559Z,6.70
2019-05-05T01:02:30.113Z,6.20
2019-05-05T01:05:29.187Z,6.77
2019-05-05T01:08:00.846Z,6.23
2019-05-05T01:10:32.694Z,5.83
2019-05-05T01:13:04.733Z,5.30
2019-05-05T01:15:54.449Z,6.00
2019-05-05T01:18:25.214Z,5.70
2019-05-05T01:20:55.723Z,5.60
2019-05-05T01:23:26.704Z,5.77
2019-05-05T01:25:57.240Z,5.50
2019-05-05T01:28:28.289Z,5.87
2019-05-05T01:31:02.835Z,4.92
2019-05-05T01:33:58.093Z,5.97
2019-05-05T01:36:28.741Z,5.50
2019-05-05T01:39:10.939Z,5.10
2019-05-05T01:41:46.627Z,5.80
2019-05-05T01:44:17.438Z,5.67
2019-05-05T01:46:48.273Z,5.17
2019-05-05T01:49:20.021Z,5.20
2019-05-05T01:51:50.596Z,5.40
2019-05-05T01:54:21.351Z,5.43
2019-05-05T01:56:55.353Z,5.10
2019-05-05T01:59:27.124Z,4.72
2019-05-05T02:01:57.805Z,5.10
2019-05-05T02:04:28.355Z,4.83
2019-05-05T02:06:59.280Z,5.00
2019-05-05T02:09:29.911Z,5.50
2019-05-05T02:12:01.184Z,5.12
2019-05-05T02:14:31.866Z,5.27
2019-05-05T02:17:02.418Z,4.90
2019-05-05T02:19:35.011Z,5.20
2019-05-05T02:22:05.838Z,4.92
2019-05-05T02:24:36.362Z,5.83
2019-05-05T02:27:06.969Z,5.00
2019-05-05T02:29:45.721Z,5.30
2019-05-05T02:32:41.679Z,5.53
2019-05-05T02:35:16.487Z,5.80
2019-05-05T02:37:47.534Z,6.07
2019-05-05T02:40:19.531Z,5.03
2019-05-05T02:42:50.434Z,5.40
2019-05-05T02:45:47.774Z,5.42
2019-05-05T02:48:19.590Z,5.23
2019-05-05T02:51:01.836Z,5.67
2019-05-05T02:53:45.433Z,5.67
2019-05-05T02:56:23.791Z,4.90
2019-05-05T02:58:57.655Z,5.87
2019-05-05T03:01:37.144Z,5.27
2019-05-05T03:04:08.664Z,5.30
2019-05-05T03:06:43.727Z,5.77
2019-05-05T03:09:15.913Z,5.30
2019-05-05T03:11:49.941Z,5.30
2019-05-05T03:14:23.716Z,5.30
2019-05-05T03:16:55.227Z,5.57
2019-05-05T03:19:26.857Z,5.07
2019-05-05T03:21:58.498Z,5.03
2019-05-05T03:24:29.605Z,4.97
2019-05-05T03:27:00.888Z,4.62
2019-05-05T03:29:33.606Z,4.63
2019-05-05T03:32:05.747Z,5.60
2019-05-05T03:34:37.428Z,4.97
2019-05-05T03:37:08.834Z,4.87
2019-05-05T03:39:44.419Z,4.83
2019-05-05T03:42:36.798Z,5.03
2019-05-05T03:45:14.515Z,5.00
2019-05-05T03:47:47.620Z,5.53
2019-05-05T03:50:18.502Z,4.93
2019-05-05T03:52:49.352Z,4.70
2019-05-05T03:55:19.935Z,4.73
2019-05-05T03:57:50.741Z,5.07
2019-05-05T04:01:45.393Z,5.00
2019-05-05T04:04:26.128Z,4.90
2019-05-05T04:06:57.422Z,4.73
2019-05-05T04:09:28.032Z,5.00
2019-05-05T04:11:58.955Z,4.50
2019-05-05T04:14:29.699Z,4.67
2019-05-05T04:17:15.463Z,4.67
2019-05-05T04:19:48.304Z,5.10
2019-05-05T04:22:18.944Z,4.73
2019-05-05T04:24:49.607Z,3.90
2019-05-05T04:27:20.520Z,5.60
2019-05-05T04:29:51.208Z,5.23
2019-05-05T04:32:21.759Z,4.60
2019-05-05T04:34:54.408Z,4.85
2019-05-05T04:37:25.102Z,4.70
2019-05-05T04:39:55.880Z,4.50
2019-05-05T04:42:26.588Z,4.47
2019-05-05T04:44:57.704Z,4.58
2019-05-05T04:47:34.388Z,4.60
2019-05-05T04:50:39.812Z,3.90
2019-05-05T04:53:15.339Z,4.50
2019-05-05T04:55:46.044Z,4.70
2019-05-05T04:58:16.940Z,4.73
2019-05-05T05:00:47.596Z,4.70
2019-05-05T05:03:26.058Z,4.13
2019-05-05T05:06:09.724Z,4.87
2019-05-05T05:08:40.304Z,5.40
2019-05-05T05:11:10.938Z,4.80
2019-05-05T05:13:43.895Z,4.90
2019-05-05T05:16:14.077Z,5.10
2019-05-05T05:18:44.800Z,4.93
2019-05-05T05:21:15.650Z,5.20
2019-05-05T05:23:46.270Z,4.40
2019-05-05T05:26:16.834Z,5.57
2019-05-05T05:28:47.708Z,4.73
2019-05-05T05:31:18.315Z,5.57
2019-05-05T05:33:48.892Z,4.30
2019-05-05T05:36:19.747Z,5.20
2019-05-05T05:38:54.225Z,4.90
2019-05-05T05:41:44.342Z,4.80
2019-05-05T05:44:39.290Z,4.73
2019-05-05T05:47:37.565Z,4.20
2019-05-05T05:50:16.435Z,4.37
2019-05-05T05:52:46.999Z,4.23
2019-05-05T05:55:17.868Z,4.33
2019-05-05T05:57:48.777Z,3.77
2019-05-05T06:00:20.138Z,4.33
2019-05-05T06:02:51.009Z,5.00
2019-05-05T06:05:23.755Z,5.07
2019-05-05T06:07:54.994Z,4.70
2019-05-05T06:10:27.402Z,4.00
2019-05-05T06:12:58.254Z,4.08
2019-05-05T06:15:33.597Z,4.30
2019-05-05T06:18:04.778Z,3.93
2019-05-05T06:20:35.474Z,4.00
2019-05-05T06:23:06.030Z,3.57
2019-05-05T06:25:38.158Z,3.90
2019-05-05T06:28:09.129Z,3.97
2019-05-05T06:30:39.862Z,3.67
2019-05-05T06:33:10.527Z,3.40
2019-05-05T06:35:41.313Z,3.30
2019-05-05T06:38:13.646Z,3.27
2019-05-05T06:40:56.895Z,3.35
2019-05-05T06:43:54.243Z,3.07
2019-05-05T06:46:28.819Z,2.80
2019-05-05T06:49:00.037Z,3.12
2019-05-05T06:51:30.856Z,2.87
2019-05-05T06:54:01.695Z,2.87
2019-05-05T06:56:34.036Z,2.97
2019-05-05T06:59:07.081Z,3.17
2019-05-05T07:01:37.885Z,2.87
2019-05-05T07:04:08.474Z,2.58
2019-05-05T07:06:51.739Z,2.80
2019-05-05T07:09:13.885Z,2.57
2019-05-05T07:11:44.722Z,2.63
2019-05-05T07:14:15.326Z,3.03
2019-05-05T07:16:49.731Z,2.70
2019-05-05T07:19:20.452Z,2.80
2019-05-05T07:21:51.142Z,2.67
2019-05-05T07:24:23.785Z,2.77
2019-05-05T07:26:54.621Z,2.50
2019-05-05T07:29:25.174Z,2.50
2019-05-05T07:31:56.090Z,2.77
2019-05-05T07:34:29.046Z,2.43
2019-05-05T07:37:00.995Z,3.00
2019-05-05T07:39:34.097Z,2.57
2019-05-05T07:42:04.968Z,3.17
2019-05-05T07:44:36.718Z,2.33
2019-05-05T07:47:07.314Z,2.43
2019-05-05T07:49:38.045Z,2.80
2019-05-05T07:52:09.823Z,2.25
2019-05-05T07:54:40.487Z,2.70
2019-05-05T07:57:11.496Z,2.70
2019-05-05T07:59:44.520Z,3.73
2019-05-05T08:02:14.708Z,4.13
2019-05-05T08:04:45.280Z,5.90
2019-05-05T08:07:16.013Z,2.70
2019-05-05T08:09:46.619Z,3.30
2019-05-05T08:12:17.371Z,6.07
2019-05-05T08:14:48.190Z,5.10
2019-05-05T08:17:38.958Z,2.63
2019-05-05T08:20:14.322Z,2.70
2019-05-05T08:22:45.323Z,2.50
2019-05-05T08:25:40.020Z,2.80
2019-05-05T08:28:28.685Z,2.92
2019-05-05T08:31:04.901Z,2.70
2019-05-05T08:33:35.645Z,2.83
2019-05-05T08:36:11.530Z,3.50
2019-05-05T08:38:45.551Z,2.60
2019-05-05T08:41:16.220Z,2.60
2019-05-05T08:43:47.129Z,2.50
2019-05-05T08:46:17.995Z,2.80
2019-05-05T08:48:53.729Z,2.93
2019-05-05T08:51:30.092Z,2.37
2019-05-05T08:54:18.921Z,2.30
2019-05-05T08:56:49.678Z,3.27
2019-05-05T08:59:20.322Z,2.77
2019-05-05T09:01:51.120Z,2.73
2019-05-05T09:04:21.857Z,2.70
2019-05-05T09:06:54.347Z,2.50
2019-05-05T09:09:25.124Z,3.13
2019-05-05T09:11:56.368Z,2.47
2019-05-05T09:14:27.295Z,2.03
2019-05-05T09:16:58.167Z,1.90
2019-05-05T09:19:29.136Z,2.77
2019-05-05T09:21:59.736Z,2.60
2019-05-05T09:24:53.651Z,3.00
2019-05-05T09:27:35.667Z,2.27
2019-05-05T09:30:07.839Z,2.25
2019-05-05T09:32:38.461Z,2.20
2019-05-05T09:35:10.110Z,1.80
2019-05-05T09:37:40.739Z,2.20
2019-05-05T09:40:13.742Z,2.40
2019-05-05T09:42:44.399Z,2.23
2019-05-05T09:45:15.624Z,2.10
2019-05-05T09:47:46.586Z,2.60
2019-05-05T09:50:19.135Z,2.57
2019-05-05T09:52:49.821Z,1.97
2019-05-05T09:55:20.499Z,1.80
2019-05-05T09:57:51.321Z,2.10
2019-05-05T10:00:24.285Z,1.83
2019-05-05T10:02:54.700Z,1.97
2019-05-05T10:05:25.435Z,1.60
2019-05-05T10:07:56.364Z,1.80
2019-05-05T10:10:27.229Z,1.70
2019-05-05T10:12:58.416Z,1.57
2019-05-05T10:15:29.300Z,2.00
2019-05-05T10:18:00.520Z,1.55
2019-05-05T10:20:31.546Z,1.73
2019-05-05T10:23:02.415Z,1.37
2019-05-05T10:25:46.708Z,1.90
2019-05-05T10:28:17.550Z,1.67
2019-05-05T10:30:48.754Z,1.20
2019-05-05T10:33:19.479Z,1.57
2019-05-05T10:35:50.579Z,1.20
2019-05-05T10:38:23.482Z,1.70
2019-05-05T10:40:54.770Z,1.57
2019-05-05T10:43:25.469Z,1.23
2019-05-05T10:45:56.305Z,1.20
2019-05-05T10:48:27.234Z,1.20
2019-05-05T10:51:04.224Z,1.30
2019-05-05T10:53:35.446Z,1.52
2019-05-05T10:56:06.691Z,1.50
2019-05-05T10:58:37.780Z,1.70
2019-05-05T11:01:09.595Z,1.50
2019-05-05T11:03:40.608Z,1.60
2019-05-05T11:06:13.698Z,1.80
2019-05-05T11:08:45.137Z,1.17
2019-05-05T11:11:15.939Z,1.30
2019-05-05T11:13:47.985Z,1.40
2019-05-05T11:16:18.604Z,1.33
2019-05-05T11:18:49.515Z,1.40
2019-05-05T11:21:20.301Z,1.30
2019-05-05T11:23:50.974Z,1.20
2019-05-05T11:26:21.610Z,1.50
2019-05-05T11:28:53.879Z,1.00
2019-05-05T11:31:24.537Z,1.20
2019-05-05T11:34:14.146Z,1.70
2019-05-05T11:37:04.623Z,1.10
2019-05-05T11:39:35.344Z,1.27
2019-05-05T11:42:05.962Z,1.62
2019-05-05T11:44:36.634Z,1.30
2019-05-05T11:47:07.570Z,1.53
2019-05-05T11:49:38.446Z,1.70
2019-05-05T11:52:09.077Z,1.10
2019-05-05T11:54:39.725Z,1.57
2019-05-05T11:57:10.676Z,1.75
2019-05-05T11:59:41.543Z,1.20
2019-05-05T12:02:14.013Z,1.15
2019-05-05T12:04:44.871Z,1.70
2019-05-05T12:07:15.514Z,1.20
2019-05-05T12:09:56.578Z,1.60
2019-05-05T12:12:27.405Z,1.70
2019-05-05T12:14:58.555Z,1.50
2019-05-05T12:17:35.943Z,1.00
2019-05-05T12:20:08.881Z,1.50
2019-05-05T12:22:39.523Z,1.03
2019-05-05T12:25:29.675Z,1.20
2019-05-05T12:28:05.385Z,1.37
2019-05-05T12:30:36.035Z,1.30
2019-05-05T12:33:07.194Z,1.10
2019-05-05T12:35:37.766Z,1.50
2019-05-05T12:38:08.579Z,1.27
2019-05-05T12:40:39.663Z,1.20
2019-05-05T12:43:10.491Z,1.27
2019-05-05T12:45:43.979Z,1.10
2019-05-05T12:48:24.131Z,1.23
2019-05-05T12:50:55.011Z,1.10
2019-05-05T12:53:25.763Z,1.30
2019-05-05T12:55:56.586Z,0.80
2019-05-05T12:58:27.603Z,0.70
2019-05-05T13:01:07.757Z,1.10
2019-05-05T13:03:38.562Z,0.90
2019-05-05T13:06:09.255Z,0.78
2019-05-05T13:08:39.861Z,1.00
2019-05-05T13:11:11.304Z,0.85
2019-05-05T13:13:43.822Z,0.70
2019-05-05T13:16:14.509Z,0.63
2019-05-05T13:18:45.113Z,1.10
2019-05-05T13:21:44.299Z,0.80
2019-05-05T13:24:46.027Z,1.07
2019-05-05T13:27:20.815Z,1.10
2019-05-05T13:29:53.526Z,1.02
2019-05-05T13:32:24.726Z,0.70
2019-05-05T13:34:55.664Z,0.90
2019-05-05T13:37:26.552Z,0.90
2019-05-05T13:39:57.349Z,0.90
2019-05-05T13:42:27.942Z,0.67
2019-05-05T13:45:29.713Z,0.60
2019-05-05T13:48:00.573Z,0.90
2019-05-05T13:50:37.992Z,0.80
2019-05-05T13:53:08.731Z,1.10
2019-05-05T13:55:39.638Z,1.13
2019-05-05T13:58:14.687Z,0.80
2019-05-05T14:00:45.640Z,1.30
2019-05-05T14:03:16.400Z,1.53
2019-05-05T14:05:47.089Z,1.37
2019-05-05T14:08:18.458Z,1.40
2019-05-05T14:10:49.241Z,1.03
2019-05-05T14:13:20.140Z,1.07
2019-05-05T14:15:55.069Z,1.20
2019-05-05T14:18:25.929Z,1.30
2019-05-05T14:20:57.082Z,0.80
2019-05-05T14:23:29.373Z,1.10
2019-05-05T14:26:00.078Z,0.90
2019-05-05T14:28:31.110Z,1.00
2019-05-05T14:31:16.633Z,1.40
2019-05-05T14:33:59.242Z,0.90
2019-05-05T14:36:40.642Z,1.00
2019-05-05T14:39:14.662Z,0.70
2019-05-05T14:41:45.208Z,0.90
2019-05-05T14:44:16.354Z,0.80
2019-05-05T14:46:47.097Z,0.93
2019-05-05T14:49:17.762Z,1.00
2019-05-05T14:51:48.862Z,0.90
2019-05-05T14:54:19.998Z,0.93
2019-05-05T14:56:54.341Z,1.10
2019-05-05T14:59:23.547Z,1.00
2019-05-05T15:01:55.338Z,0.80
2019-05-05T15:04:31.790Z,0.70
2019-05-05T15:07:18.049Z,0.88
2019-05-05T15:09:57.100Z,1.00
2019-05-05T15:12:42.288Z,1.00
2019-05-05T15:15:14.313Z,0.95
2019-05-05T15:17:45.280Z,0.90
2019-05-05T15:20:16.134Z,0.70
2019-05-05T15:22:47.127Z,0.80
2019-05-05T15:25:17.931Z,1.13
2019-05-05T15:27:48.943Z,1.27
2019-05-05T15:30:20.060Z,0.90
2019-05-05T15:32:51.002Z,2.27
2019-05-05T15:35:21.607Z,1.90
2019-05-05T15:37:53.986Z,0.90
2019-05-05T15:40:25.045Z,0.90
2019-05-05T15:42:55.922Z,1.00
2019-05-05T15:45:26.862Z,0.70
2019-05-05T15:47:57.560Z,0.80
2019-05-05T15:50:28.158Z,0.80
2019-05-05T15:52:59.002Z,0.90
2019-05-05T15:55:30.031Z,1.00
2019-05-05T15:58:01.211Z,0.70
2019-05-05T16:00:33.717Z,0.80
2019-05-05T16:03:07.228Z,1.03
2019-05-05T16:05:37.209Z,0.80
2019-05-05T16:08:08.006Z,1.00
2019-05-05T16:10:38.925Z,1.30
2019-05-05T16:13:09.547Z,1.12
2019-05-05T16:16:02.072Z,1.10
2019-05-05T16:19:04.500Z,1.17
2019-05-05T16:21:43.793Z,0.97
2019-05-05T16:24:33.698Z,0.90
2019-05-05T16:27:18.419Z,0.70
2019-05-05T16:29:37.088Z,0.60
2019-05-05T16:32:18.432Z,0.88
2019-05-05T16:34:42.284Z,0.80
2019-05-05T16:37:14.432Z,0.60
2019-05-05T16:39:45.087Z,0.80
2019-05-05T16:42:16.899Z,0.80
2019-05-05T16:44:49.859Z,0.80
2019-05-05T16:47:20.584Z,1.03
2019-05-05T16:49:53.802Z,0.90
2019-05-05T16:52:30.589Z,0.90
2019-05-05T16:55:09.734Z,0.65
2019-05-05T16:57:40.435Z,1.23
2019-05-05T17:00:14.301Z,1.15
2019-05-05T17:02:45.287Z,1.00
2019-05-05T17:05:16.794Z,1.03
2019-05-05T17:07:47.457Z,0.87
2019-05-05T17:10:19.691Z,1.10
2019-05-05T17:12:50.318Z,1.20
2019-05-05T17:15:45.919Z,1.10
2019-05-05T17:18:44.797Z,1.00
2019-05-05T17:21:37.361Z,1.00
2019-05-05T17:24:08.264Z,1.20
2019-05-05T17:26:39.146Z,1.90
2019-05-05T17:29:10.129Z,1.00
2019-05-05T17:31:41.165Z,1.10
2019-05-05T17:34:13.740Z,1.10
2019-05-05T17:36:45.325Z,0.93
2019-05-05T17:39:16.574Z,0.80
2019-05-05T17:42:24.554Z,0.90
2019-05-05T17:45:04.233Z,1.00
2019-05-05T17:47:39.258Z,0.90
2019-05-05T17:50:17.467Z,1.10
2019-05-05T17:53:07.063Z,1.00
2019-05-05T17:55:39.859Z,1.20
2019-05-05T17:58:10.755Z,1.57
2019-05-05T18:01:00.336Z,1.13
2019-05-05T18:03:31.050Z,1.10
2019-05-05T18:06:19.167Z,0.98
2019-05-05T18:08:53.943Z,0.87
2019-05-05T18:11:49.730Z,1.00
2019-05-05T18:14:24.714Z,1.13
2019-05-05T18:16:57.798Z,0.83
2019-05-05T18:19:29.424Z,1.00
2019-05-05T18:22:00.268Z,0.97
2019-05-05T18:24:31.235Z,0.70
2019-05-05T18:27:04.437Z,1.00
2019-05-05T18:29:34.938Z,1.03
2019-05-05T18:32:05.701Z,1.10
2019-05-05T18:34:36.285Z,1.20
2019-05-05T18:37:07.482Z,1.05
2019-05-05T18:39:38.285Z,1.37
2019-05-05T18:42:15.867Z,1.87
2019-05-05T18:44:48.910Z,1.33
2019-05-05T18:47:20.347Z,1.50
2019-05-05T18:49:51.229Z,1.70
2019-05-05T18:52:24.305Z,1.30
2019-05-05T18:54:55.825Z,1.35
2019-05-05T18:57:27.164Z,1.30
2019-05-05T18:59:57.895Z,1.10
2019-05-05T19:02:46.405Z,1.07
2019-05-05T19:05:53.472Z,0.90
2019-05-05T19:08:30.131Z,0.80
2019-05-05T19:11:01.211Z,1.20
2019-05-05T19:13:33.889Z,1.13
2019-05-05T19:16:04.474Z,0.83
2019-05-05T19:18:35.219Z,0.90
2019-05-05T19:21:16.078Z,1.00
2019-05-05T19:23:46.706Z,0.83
2019-05-05T19:26:17.362Z,0.90
2019-05-05T19:28:50.185Z,0.87
2019-05-05T19:31:20.667Z,1.00
2019-05-05T19:33:51.299Z,0.97
2019-05-05T19:36:21.944Z,1.03
2019-05-05T19:38:54.741Z,0.90
2019-05-05T19:41:25.093Z,1.03
2019-05-05T19:43:55.810Z,1.00
2019-05-05T19:46:44.127Z,0.80
2019-05-05T19:49:18.695Z,1.13
2019-05-05T19:51:50.010Z,1.03
2019-05-05T19:54:20.647Z,0.80
2019-05-05T19:56:54.328Z,0.80
2019-05-05T19:59:28.087Z,1.00
2019-05-05T20:02:09.851Z,0.90
2019-05-05T20:05:05.415Z,0.90
2019-05-05T20:07:36.337Z,1.40
2019-05-05T20:10:10.671Z,1.37
2019-05-05T20:12:44.730Z,1.33
2019-05-05T20:15:19.639Z,1.53
2019-05-05T20:17:50.596Z,1.20
2019-05-05T20:20:21.450Z,1.40
2019-05-05T20:22:52.362Z,1.10
2019-05-05T20:25:24.375Z,1.17
2019-05-05T20:27:56.216Z,1.20
2019-05-05T20:30:27.004Z,1.37
2019-05-05T20:33:04.076Z,1.40
2019-05-05T20:35:51.181Z,1.10
2019-05-05T20:38:40.733Z,1.50
2019-05-05T20:41:15.873Z,1.37
2019-05-05T20:43:46.507Z,1.63
2019-05-05T20:46:17.518Z,1.80
2019-05-05T20:48:48.190Z,1.90
2019-05-05T20:51:18.788Z,1.80
2019-05-05T20:53:49.509Z,2.10
2019-05-05T20:56:20.549Z,1.80
2019-05-05T20:58:51.764Z,1.97
2019-05-05T21:01:24.501Z,2.57
2019-05-05T21:03:55.765Z,2.45
2019-05-05T21:06:26.560Z,2.27
2019-05-05T21:08:57.511Z,2.50
2019-05-05T21:11:28.471Z,2.53
2019-05-05T21:13:59.482Z,2.70
2019-05-05T21:16:30.454Z,2.30
2019-05-05T21:19:01.342Z,2.47
2019-05-05T21:21:34.321Z,2.30
2019-05-05T21:24:05.550Z,2.02
2019-05-05T21:26:54.000Z,2.53
2019-05-05T21:29:38.222Z,2.90
2019-05-05T21:32:00.487Z,2.13
2019-05-05T21:34:34.253Z,2.30
2019-05-05T21:37:04.955Z,2.33
2019-05-05T21:39:35.669Z,2.23
2019-05-05T21:42:06.592Z,2.40
2019-05-05T21:44:37.666Z,2.83
2019-05-05T21:47:11.543Z,2.70
2019-05-05T21:49:42.486Z,2.70
2019-05-05T21:52:27.545Z,2.75
2019-05-05T21:55:07.826Z,2.30
2019-05-05T21:58:06.525Z,2.60
2019-05-05T22:01:04.477Z,2.37
2019-05-05T22:03:38.319Z,2.43
2019-05-05T22:06:08.980Z,2.43
2019-05-05T22:08:39.604Z,2.40
2019-05-05T22:11:10.527Z,2.60
2019-05-05T22:13:41.163Z,2.57
2019-05-05T22:16:13.628Z,2.62
2019-05-05T22:18:46.741Z,2.50
2019-05-05T22:21:39.534Z,2.90
2019-05-05T22:24:17.276Z,2.33
2019-05-05T22:26:47.935Z,2.50
2019-05-05T22:29:18.553Z,2.20
2019-05-05T22:31:49.632Z,2.23
2019-05-05T22:34:20.615Z,2.42
2019-05-05T22:36:51.211Z,2.57
2019-05-05T22:39:24.118Z,2.40
2019-05-05T22:41:55.369Z,2.30
2019-05-05T22:44:26.043Z,2.43
2019-05-05T22:46:56.871Z,2.30
2019-05-05T22:49:27.546Z,2.27
2019-05-05T22:51:58.094Z,2.40
2019-05-05T22:54:28.743Z,2.00
2019-05-05T22:56:59.635Z,2.17
2019-05-05T22:59:30.457Z,2.17
2019-05-05T23:02:01.321Z,2.10
2019-05-05T23:04:40.360Z,2.10
2019-05-05T23:07:17.244Z,2.40
2019-05-05T23:09:48.129Z,2.00
2019-05-05T23:12:18.710Z,2.30
2019-05-05T23:14:49.655Z,2.17
2019-05-05T23:17:38.456Z,2.20
2019-05-05T23:20:34.538Z,2.40
2019-05-05T23:23:14.628Z,2.50
2019-05-05T23:25:47.603Z,2.37
2019-05-05T23:28:18.181Z,2.23
2019-05-05T23:30:48.905Z,1.90
2019-05-05T23:33:19.774Z,1.80
2019-05-05T23:35:50.620Z,2.10
2019-05-05T23:38:21.180Z,1.83
2019-05-05T23:40:53.961Z,1.87
2019-05-05T23:43:24.769Z,2.10
2019-05-05T23:45:56.115Z,1.90
2019-05-05T23:48:26.836Z,2.43
2019-05-05T23:50:57.819Z,2.20
2019-05-05T23:53:28.671Z,2.13
2019-05-05T23:55:59.258Z,2.10
2019-05-05T23:58:29.842Z,2.63
